Time;durP1;ratioP1;P1;durP2;ratioP2;P2;SDS_P1;SDS_P2;PMS_P1;PMS_P2;Temp;Humidity;BMP_temperature;BMP_pressure;BME280_temperature;BME280_humidity;BME280_pressure;Samples;Min_cycle;Max_cycle;Signal;HPM_P1;HPM_P2
2020/12/29 00:01:38;;;;;;;3.90;3.17;;;6.90;99.90;;;;;;5148288;27;20224;-78
2020/12/29 00:04:06;;;;;;;4.28;3.22;;;6.90;99.90;;;;;;5154747;27;20219;-80
2020/12/29 00:06:32;;;;;;;3.72;3.00;;;6.90;99.90;;;;;;5137821;27;20199;-80
2020/12/29 00:08:58;;;;;;;3.78;3.25;;;6.90;99.90;;;;;;5135644;27;20291;-79
2020/12/29 00:11:25;;;;;;;3.83;2.95;;;6.90;99.90;;;;;;5135166;27;20196;-80
2020/12/29 00:13:51;;;;;;;4.15;3.00;;;6.90;99.90;;;;;;5135831;27;20196;-78
2020/12/29 00:16:18;;;;;;;4.35;3.22;;;6.90;99.90;;;;;;5134822;27;20222;-81
2020/12/29 00:18:45;;;;;;;4.65;3.78;;;6.90;99.90;;;;;;5135200;27;20272;-79
2020/12/29 00:21:21;;;;;;;3.90;3.20;;;6.90;99.90;;;;;;5135349;27;20204;-80
2020/12/29 00:23:48;;;;;;;3.28;3.00;;;6.90;99.90;;;;;;5144231;27;20184;-80
2020/12/29 00:26:15;;;;;;;3.58;2.92;;;6.80;99.90;;;;;;5155884;27;20630;-79
2020/12/29 00:28:42;;;;;;;4.28;3.15;;;6.80;99.90;;;;;;5136175;27;20285;-80
2020/12/29 00:31:08;;;;;;;2.72;2.53;;;6.80;99.90;;;;;;5142150;27;20202;-79
2020/12/29 00:33:34;;;;;;;3.10;2.80;;;6.80;99.90;;;;;;5136539;27;20286;-80
2020/12/29 00:36:02;;;;;;;3.55;2.60;;;6.80;99.90;;;;;;5135218;27;20191;-80
2020/12/29 00:38:28;;;;;;;4.63;3.05;;;6.70;99.90;;;;;;5134838;27;20277;-80
2020/12/29 00:40:55;;;;;;;3.95;2.80;;;6.80;99.90;;;;;;5147891;27;20203;-80
2020/12/29 00:43:21;;;;;;;3.33;3.00;;;6.80;99.90;;;;;;5137674;27;20195;-80
2020/12/29 00:45:47;;;;;;;3.78;2.50;;;6.70;99.90;;;;;;5155497;27;20191;-80
2020/12/29 00:48:13;;;;;;;3.72;3.03;;;6.80;99.90;;;;;;5147920;27;20663;-80
2020/12/29 00:50:40;;;;;;;4.32;2.80;;;6.70;99.90;;;;;;5134557;27;20196;-80
2020/12/29 00:53:08;;;;;;;5.40;3.15;;;6.70;99.90;;;;;;5135852;27;20241;-79
2020/12/29 00:55:34;;;;;;;3.35;2.83;;;6.70;99.90;;;;;;5134555;27;20203;-80
2020/12/29 00:58:00;;;;;;;4.20;2.75;;;6.70;99.90;;;;;;5150168;27;20195;-80
2020/12/29 01:00:27;;;;;;;3.08;2.53;;;6.70;99.90;;;;;;5142594;27;20212;-80
2020/12/29 01:02:53;;;;;;;4.57;3.22;;;6.70;99.90;;;;;;5134635;27;20236;-78
2020/12/29 01:05:19;;;;;;;3.90;3.15;;;6.70;99.90;;;;;;5135657;27;20624;-78
2020/12/29 01:07:46;;;;;;;5.10;3.10;;;6.70;99.90;;;;;;5153852;27;20215;-77
2020/12/29 01:10:13;;;;;;;4.15;3.42;;;6.70;99.90;;;;;;5151576;27;20217;-78
2020/12/29 01:12:39;;;;;;;4.15;3.53;;;6.70;99.90;;;;;;5134436;27;20204;-78
2020/12/29 01:15:05;;;;;;;3.13;2.78;;;6.70;99.90;;;;;;5134533;27;20192;-79
2020/12/29 01:17:31;;;;;;;3.60;3.25;;;6.70;99.90;;;;;;5134388;27;20292;-78
2020/12/29 01:19:58;;;;;;;5.32;3.95;;;6.70;99.90;;;;;;5134828;27;20287;-78
2020/12/29 01:22:24;;;;;;;5.30;3.92;;;6.60;99.90;;;;;;5151824;27;20527;-78
2020/12/29 01:24:50;;;;;;;4.60;3.17;;;6.70;99.90;;;;;;5134082;27;20203;-78
2020/12/29 01:27:17;;;;;;;4.53;3.30;;;6.70;99.90;;;;;;5138014;27;20183;-78
2020/12/29 01:29:43;;;;;;;5.40;3.28;;;6.70;99.90;;;;;;5154960;27;20254;-78
2020/12/29 01:32:10;;;;;;;2.78;2.58;;;6.70;99.90;;;;;;5136568;27;20192;-78
2020/12/29 01:34:36;;;;;;;4.43;3.38;;;6.70;99.90;;;;;;5134605;27;20215;-78
2020/12/29 01:37:02;;;;;;;4.38;3.60;;;6.70;99.90;;;;;;5133530;27;20706;-79
2020/12/29 01:39:29;;;;;;;3.00;2.67;;;6.60;99.90;;;;;;5133480;27;20219;-79
2020/12/29 01:41:55;;;;;;;6.07;3.42;;;6.60;99.90;;;;;;5133669;27;20764;-78
2020/12/29 01:44:22;;;;;;;3.38;3.08;;;6.60;99.90;;;;;;5153492;27;20187;-79
2020/12/29 01:46:50;;;;;;;3.88;3.47;;;6.60;99.90;;;;;;5139782;27;20217;-79
2020/12/29 01:49:17;;;;;;;5.13;4.25;;;6.60;99.90;;;;;;5133802;27;20238;-78
2020/12/29 01:51:44;;;;;;;4.97;3.50;;;6.70;99.90;;;;;;5133728;27;20204;-79
2020/12/29 01:54:10;;;;;;;4.57;3.80;;;6.60;99.90;;;;;;5134752;27;20207;-78
2020/12/29 01:56:38;;;;;;;4.10;3.10;;;6.60;99.90;;;;;;5143535;27;20252;-79
2020/12/29 01:59:08;;;;;;;3.97;3.00;;;6.60;99.90;;;;;;5153787;27;20215;-79
2020/12/29 02:01:37;;;;;;;4.28;3.38;;;6.50;99.90;;;;;;5154064;27;20202;-78
2020/12/29 02:04:03;;;;;;;3.13;2.83;;;6.50;99.90;;;;;;5136510;27;20192;-80
2020/12/29 02:06:30;;;;;;;3.90;2.90;;;6.50;99.90;;;;;;5141267;27;20631;-78
2020/12/29 02:08:56;;;;;;;4.30;3.00;;;6.50;99.90;;;;;;5134347;27;20192;-78
2020/12/29 02:11:23;;;;;;;3.00;2.63;;;6.40;99.90;;;;;;5146071;27;20195;-78
2020/12/29 02:13:49;;;;;;;4.18;3.40;;;6.40;99.90;;;;;;5153960;27;20199;-78
2020/12/29 02:16:15;;;;;;;2.88;2.42;;;6.40;99.90;;;;;;5142791;27;20200;-78
2020/12/29 02:18:42;;;;;;;3.20;2.53;;;6.50;99.90;;;;;;5133296;27;20196;-78
2020/12/29 02:21:08;;;;;;;3.92;2.58;;;6.50;99.90;;;;;;5134155;27;20196;-78
2020/12/29 02:23:36;;;;;;;3.92;3.50;;;6.40;99.90;;;;;;5133283;27;20192;-79
2020/12/29 02:26:02;;;;;;;3.45;3.15;;;6.40;99.90;;;;;;5133191;27;20215;-78
2020/12/29 02:28:28;;;;;;;4.55;3.00;;;6.40;99.90;;;;;;5133152;27;20207;-79
2020/12/29 02:30:54;;;;;;;5.10;3.75;;;6.40;99.90;;;;;;5144051;27;20534;-81
2020/12/29 02:33:21;;;;;;;5.70;3.53;;;6.40;99.90;;;;;;5151655;27;20188;-80
2020/12/29 02:35:47;;;;;;;3.70;3.05;;;6.30;99.90;;;;;;5153573;27;20252;-82
2020/12/29 02:38:13;;;;;;;3.15;2.85;;;6.30;99.90;;;;;;5149502;27;20223;-80
2020/12/29 02:40:40;;;;;;;5.97;3.65;;;6.30;99.90;;;;;;5141066;27;20208;-79
2020/12/29 02:43:06;;;;;;;3.40;2.90;;;6.30;99.90;;;;;;5132804;28;20200;-79
2020/12/29 02:45:33;;;;;;;4.97;3.70;;;6.30;99.90;;;;;;5133193;27;20204;-79
2020/12/29 02:47:59;;;;;;;4.32;3.78;;;6.30;99.90;;;;;;5143861;27;20263;-79
2020/12/29 02:50:29;;;;;;;2.75;2.55;;;6.20;99.90;;;;;;5137441;27;20870;-78
2020/12/29 02:52:56;;;;;;;5.70;3.25;;;6.30;99.90;;;;;;5142808;27;20275;-79
2020/12/29 02:55:22;;;;;;;3.25;3.05;;;6.30;99.90;;;;;;5156778;27;20195;-79
2020/12/29 02:57:49;;;;;;;3.75;3.25;;;6.30;99.90;;;;;;5148227;27;20200;-79
2020/12/29 03:00:15;;;;;;;5.32;2.95;;;6.20;99.90;;;;;;5136749;27;20668;-80
2020/12/29 03:02:41;;;;;;;3.50;3.20;;;6.30;99.90;;;;;;5136643;27;20207;-79
2020/12/29 03:05:08;;;;;;;4.32;2.95;;;6.20;99.90;;;;;;5138283;27;20196;-80
2020/12/29 03:07:34;;;;;;;3.80;3.15;;;6.30;99.90;;;;;;5136983;27;20204;-78
2020/12/29 03:10:00;;;;;;;3.30;3.00;;;6.20;99.90;;;;;;5136922;27;20233;-79
2020/12/29 03:12:26;;;;;;;4.40;3.47;;;6.30;99.90;;;;;;5138254;27;20196;-79
2020/12/29 03:14:53;;;;;;;3.50;2.97;;;6.30;99.90;;;;;;5136672;27;20628;-79
2020/12/29 03:17:20;;;;;;;4.63;2.90;;;6.30;99.90;;;;;;5136388;27;20585;-79
2020/12/29 03:19:46;;;;;;;2.85;2.60;;;6.30;99.90;;;;;;5136654;27;20575;-78
2020/12/29 03:22:12;;;;;;;3.72;2.90;;;6.20;99.90;;;;;;5142456;27;20192;-78
2020/12/29 03:24:38;;;;;;;4.03;3.67;;;6.20;99.90;;;;;;5138313;27;20211;-79
2020/12/29 03:27:05;;;;;;;3.10;2.60;;;6.30;99.90;;;;;;5136562;27;20211;-79
2020/12/29 03:29:31;;;;;;;4.57;3.38;;;6.30;99.90;;;;;;5148850;27;20198;-77
2020/12/29 03:31:58;;;;;;;3.42;3.17;;;6.30;99.90;;;;;;5156720;27;20200;-77
2020/12/29 03:34:26;;;;;;;3.25;2.90;;;6.30;99.90;;;;;;5153575;27;20204;-77
2020/12/29 03:36:53;;;;;;;3.40;2.60;;;6.20;99.90;;;;;;5150631;27;20231;-77
2020/12/29 03:39:19;;;;;;;4.07;3.05;;;6.30;99.90;;;;;;5136259;27;20216;-77
2020/12/29 03:41:46;;;;;;;3.90;3.42;;;6.30;99.90;;;;;;5151414;27;20191;-78
2020/12/29 03:44:12;;;;;;;2.58;2.38;;;6.30;99.90;;;;;;5139639;27;20638;-79
2020/12/29 03:46:39;;;;;;;3.28;2.60;;;6.30;99.90;;;;;;5136443;27;20192;-78
2020/12/29 03:49:06;;;;;;;3.08;2.78;;;6.20;99.90;;;;;;5136122;27;20207;-78
2020/12/29 03:51:32;;;;;;;3.50;2.85;;;6.20;99.90;;;;;;5135872;27;20208;-78
2020/12/29 03:53:58;;;;;;;3.28;2.97;;;6.10;99.90;;;;;;5135905;27;20200;-79
2020/12/29 03:56:24;;;;;;;3.15;2.92;;;6.10;99.90;;;;;;5137509;27;20196;-78
2020/12/29 03:58:51;;;;;;;3.92;3.40;;;6.20;99.90;;;;;;5155339;27;20196;-79
2020/12/29 04:01:17;;;;;;;3.80;3.50;;;6.20;99.90;;;;;;5135872;27;20199;-79
2020/12/29 04:03:44;;;;;;;4.50;3.38;;;6.10;99.90;;;;;;5135759;27;20200;-78
2020/12/29 04:06:12;;;;;;;3.55;2.92;;;6.10;99.90;;;;;;5135166;27;20196;-78
2020/12/29 04:08:38;;;;;;;2.90;2.60;;;6.10;99.90;;;;;;5137809;27;20211;-78
2020/12/29 04:11:04;;;;;;;4.43;2.50;;;6.10;99.90;;;;;;5135858;27;20203;-77
2020/12/29 04:13:31;;;;;;;3.42;2.58;;;6.10;99.90;;;;;;5135739;27;20509;-77
2020/12/29 04:15:58;;;;;;;3.47;2.70;;;6.10;99.90;;;;;;5135512;27;20204;-77
2020/12/29 04:18:25;;;;;;;3.10;2.80;;;6.10;99.90;;;;;;5135277;27;20208;-78
2020/12/29 04:20:51;;;;;;;3.28;2.83;;;6.10;99.90;;;;;;5135343;27;20216;-78
2020/12/29 04:23:18;;;;;;;3.70;3.00;;;6.10;99.90;;;;;;5135590;27;20219;-78
2020/12/29 04:25:44;;;;;;;2.85;2.45;;;6.10;99.90;;;;;;5137497;27;20203;-78
2020/12/29 04:28:11;;;;;;;3.28;2.80;;;6.10;99.90;;;;;;5154343;27;20191;-77
2020/12/29 04:30:37;;;;;;;4.22;3.10;;;6.00;99.90;;;;;;5147776;27;20249;-78
2020/12/29 04:33:03;;;;;;;5.30;3.00;;;6.10;99.90;;;;;;5135246;27;20200;-77
2020/12/29 04:35:29;;;;;;;3.08;2.78;;;6.10;99.90;;;;;;5135301;27;20203;-79
2020/12/29 04:37:56;;;;;;;4.05;3.03;;;6.10;99.90;;;;;;5135009;27;20281;-79
2020/12/29 04:40:23;;;;;;;2.55;2.28;;;6.00;99.90;;;;;;5135175;27;20224;-79
2020/12/29 04:42:51;;;;;;;3.15;2.83;;;6.00;99.90;;;;;;5134751;27;20200;-79
2020/12/29 04:45:19;;;;;;;2.92;2.35;;;6.10;99.90;;;;;;5135391;27;20687;-78
2020/12/29 04:47:46;;;;;;;2.95;2.63;;;6.00;99.90;;;;;;5143921;27;20200;-78
2020/12/29 04:50:14;;;;;;;4.35;3.17;;;6.00;99.90;;;;;;5134829;27;20539;-78
2020/12/29 04:52:44;;;;;;;3.88;3.13;;;6.00;99.90;;;;;;5135900;27;20298;-79
2020/12/29 04:55:11;;;;;;;3.95;3.47;;;6.00;99.90;;;;;;5136654;27;20203;-79
2020/12/29 04:57:43;;;;;;;3.65;2.95;;;6.00;99.90;;;;;;5150761;27;20679;-78
2020/12/29 05:00:09;;;;;;;3.65;2.75;;;6.00;99.90;;;;;;5154204;27;20208;-79
2020/12/29 05:02:35;;;;;;;4.22;3.70;;;5.90;99.90;;;;;;5145243;27;20539;-79
2020/12/29 05:05:02;;;;;;;2.72;2.42;;;5.90;99.90;;;;;;5134762;27;20204;-80
2020/12/29 05:07:28;;;;;;;3.03;2.80;;;5.90;99.90;;;;;;5134551;27;20203;-79
2020/12/29 05:09:55;;;;;;;4.32;2.80;;;5.90;99.90;;;;;;5151236;27;20192;-79
2020/12/29 05:12:21;;;;;;;3.38;2.95;;;6.00;99.90;;;;;;5137386;27;20632;-80
2020/12/29 05:14:48;;;;;;;2.90;2.60;;;5.90;99.90;;;;;;5134528;27;20509;-80
2020/12/29 05:17:15;;;;;;;3.80;3.15;;;5.90;99.90;;;;;;5133527;27;20207;-79
2020/12/29 05:19:41;;;;;;;3.40;3.10;;;6.00;99.90;;;;;;5135062;27;20216;-80
2020/12/29 05:22:08;;;;;;;3.28;2.97;;;6.00;99.90;;;;;;5135377;27;20225;-80
2020/12/29 05:24:35;;;;;;;2.55;2.35;;;6.00;99.90;;;;;;5134167;27;20203;-80
2020/12/29 05:27:01;;;;;;;5.32;3.20;;;5.90;99.90;;;;;;5134166;27;20204;-80
2020/12/29 05:29:30;;;;;;;3.42;2.70;;;5.90;99.90;;;;;;5146281;27;20188;-80
2020/12/29 05:31:57;;;;;;;3.88;3.10;;;5.90;99.90;;;;;;5154747;27;20214;-80
2020/12/29 05:34:25;;;;;;;2.55;2.35;;;6.00;99.90;;;;;;5154506;27;20203;-80
2020/12/29 05:36:52;;;;;;;4.15;3.05;;;6.00;99.90;;;;;;5149602;27;20203;-80
2020/12/29 05:39:19;;;;;;;3.00;2.70;;;5.90;99.90;;;;;;5134075;27;20268;-80
2020/12/29 05:41:48;;;;;;;3.97;3.58;;;5.90;99.90;;;;;;5133819;27;20192;-80
2020/12/29 05:44:24;;;;;;;3.80;3.13;;;5.90;99.90;;;;;;5135271;27;20211;-79
2020/12/29 05:46:50;;;;;;;3.38;2.85;;;5.90;99.90;;;;;;5136276;27;20261;-78
2020/12/29 05:49:20;;;;;;;3.13;2.55;;;5.90;99.90;;;;;;5137713;27;20623;-79
2020/12/29 05:51:48;;;;;;;4.10;2.88;;;5.90;99.90;;;;;;5154527;27;20207;-79
2020/12/29 05:54:16;;;;;;;3.70;3.10;;;5.90;99.90;;;;;;5153217;27;20191;-78
2020/12/29 05:56:43;;;;;;;3.72;2.95;;;5.90;99.90;;;;;;5151558;27;20195;-81
2020/12/29 05:59:12;;;;;;;4.35;3.00;;;5.90;99.90;;;;;;5147446;27;20208;-82
2020/12/29 06:01:39;;;;;;;2.80;2.60;;;5.90;99.90;;;;;;5137422;27;20222;-80
2020/12/29 06:04:06;;;;;;;3.35;2.55;;;5.90;99.90;;;;;;5154396;27;20196;-80
2020/12/29 06:06:35;;;;;;;2.50;2.30;;;5.90;99.90;;;;;;5147052;27;20199;-80
2020/12/29 06:09:04;;;;;;;5.30;3.13;;;5.90;99.90;;;;;;5133619;27;20412;-80
2020/12/29 06:11:42;;;;;;;3.28;2.92;;;5.90;99.90;;;;;;5133566;27;20192;-80
2020/12/29 06:14:12;;;;;;;4.22;3.40;;;5.90;99.90;;;;;;5133848;27;20176;-80
2020/12/29 06:16:39;;;;;;;3.80;2.80;;;5.90;99.90;;;;;;5145319;27;20221;-79
2020/12/29 06:19:19;;;;;;;3.40;2.83;;;5.90;99.90;;;;;;5133076;27;20204;-78
2020/12/29 06:22:01;;;;;;;3.33;3.03;;;5.90;99.90;;;;;;5133542;27;20192;-77
2020/12/29 06:24:29;;;;;;;3.67;2.53;;;5.90;99.90;;;;;;5136244;27;20334;-78
2020/12/29 06:26:59;;;;;;;3.05;2.78;;;5.90;99.90;;;;;;5149973;27;20612;-78
2020/12/29 06:29:31;;;;;;;3.22;2.90;;;5.90;99.90;;;;;;5132936;27;20196;-78
2020/12/29 06:31:58;;;;;;;4.28;2.95;;;5.90;99.90;;;;;;5133295;27;20253;-79
2020/12/29 06:34:24;;;;;;;3.65;2.50;;;5.90;99.90;;;;;;5133247;27;20189;-79
2020/12/29 06:36:55;;;;;;;2.85;2.65;;;5.90;99.90;;;;;;5133503;27;20192;-79
2020/12/29 06:39:23;;;;;;;3.30;2.70;;;5.90;99.90;;;;;;5133161;27;20239;-80
2020/12/29 06:41:51;;;;;;;3.15;2.83;;;6.00;99.90;;;;;;5133269;28;20204;-80
2020/12/29 06:44:17;;;;;;;3.45;3.25;;;6.00;99.90;;;;;;5137678;27;20236;-79
2020/12/29 06:46:55;;;;;;;3.13;2.83;;;6.00;99.90;;;;;;5153540;27;20195;-80
2020/12/29 06:49:22;;;;;;;2.88;2.67;;;5.90;99.90;;;;;;5149064;27;20188;-80
2020/12/29 06:52:09;;;;;;;3.17;2.80;;;6.00;99.90;;;;;;5134736;27;20587;-80
2020/12/29 06:54:49;;;;;;;2.97;2.78;;;6.00;99.90;;;;;;5152122;27;20199;-80
2020/12/29 06:57:15;;;;;;;3.50;3.20;;;6.10;99.90;;;;;;5153517;27;20191;-80
2020/12/29 06:59:42;;;;;;;4.80;2.97;;;6.00;99.90;;;;;;5153297;27;20226;-80
2020/12/29 07:02:19;;;;;;;4.20;2.70;;;6.10;99.90;;;;;;5150194;27;20202;-80
2020/12/29 07:04:55;;;;;;;4.03;3.40;;;6.00;99.90;;;;;;5152767;27;20199;-79
2020/12/29 07:07:27;;;;;;;3.70;2.72;;;6.00;99.90;;;;;;5153607;27;20243;-80
2020/12/29 07:10:09;;;;;;;4.07;3.17;;;6.10;99.90;;;;;;5146878;27;20191;-79
2020/12/29 07:12:36;;;;;;;3.53;3.08;;;6.10;99.90;;;;;;5132808;28;20196;-79
2020/12/29 07:15:04;;;;;;;3.88;3.15;;;6.10;99.90;;;;;;5132498;28;20604;-80
2020/12/29 07:17:32;;;;;;;4.55;4.15;;;6.10;99.90;;;;;;5135148;27;20196;-79
2020/12/29 07:19:58;;;;;;;6.72;2.88;;;6.10;99.90;;;;;;5132778;27;20231;-80
2020/12/29 07:22:27;;;;;;;3.85;3.55;;;6.10;99.90;;;;;;5132900;28;20192;-80
2020/12/29 07:24:55;;;;;;;2.72;2.42;;;6.10;99.90;;;;;;5143132;27;20650;-79
2020/12/29 07:27:22;;;;;;;4.30;3.60;;;6.10;99.90;;;;;;5149977;27;20256;-78
2020/12/29 07:29:54;;;;;;;3.45;2.83;;;6.10;99.90;;;;;;5153481;27;20199;-79
2020/12/29 07:32:20;;;;;;;3.10;2.80;;;6.00;99.90;;;;;;5150533;27;20274;-79
2020/12/29 07:34:47;;;;;;;3.70;3.10;;;6.00;99.90;;;;;;5132646;27;20509;-79
2020/12/29 07:37:16;;;;;;;4.15;3.55;;;6.10;99.90;;;;;;5143622;27;20227;-77
2020/12/29 07:39:44;;;;;;;4.25;3.58;;;6.10;99.90;;;;;;5132420;27;20216;-77
2020/12/29 07:42:12;;;;;;;5.00;4.05;;;6.00;99.90;;;;;;5134522;27;20200;-76
2020/12/29 07:44:39;;;;;;;4.05;3.20;;;6.00;99.90;;;;;;5136269;27;20188;-79
2020/12/29 07:47:05;;;;;;;3.88;3.28;;;6.00;99.90;;;;;;5135880;27;20248;-79
2020/12/29 07:49:32;;;;;;;4.00;3.45;;;6.00;99.90;;;;;;5135302;27;20949;-76
2020/12/29 07:51:58;;;;;;;4.82;3.40;;;6.00;99.90;;;;;;5136317;27;20192;-76
2020/12/29 07:54:24;;;;;;;3.22;2.92;;;6.00;99.90;;;;;;5135587;27;20192;-77
2020/12/29 07:56:51;;;;;;;2.72;2.53;;;6.00;99.90;;;;;;5141246;27;20203;-77
2020/12/29 07:59:17;;;;;;;3.58;3.28;;;6.00;99.90;;;;;;5154633;27;20192;-77
2020/12/29 08:01:56;;;;;;;3.47;3.15;;;6.00;99.90;;;;;;5156402;27;20199;-76
2020/12/29 08:04:24;;;;;;;4.32;3.50;;;5.90;99.90;;;;;;5136843;27;20192;-76
2020/12/29 08:06:50;;;;;;;3.65;3.25;;;5.90;99.90;;;;;;5137210;27;20234;-76
2020/12/29 08:09:16;;;;;;;4.60;3.50;;;5.90;99.90;;;;;;5135844;27;20210;-76
2020/12/29 08:11:43;;;;;;;6.78;3.90;;;5.80;99.90;;;;;;5136971;27;20207;-80
2020/12/29 08:14:10;;;;;;;4.13;3.72;;;5.80;99.90;;;;;;5142517;27;20277;-84
2020/12/29 08:16:36;;;;;;;3.33;2.95;;;5.70;99.90;;;;;;5150997;27;20635;-85
2020/12/29 08:19:06;;;;;;;3.40;3.10;;;5.70;99.90;;;;;;5157866;27;20566;-85
2020/12/29 08:21:34;;;;;;;4.18;3.78;;;5.70;99.90;;;;;;5141483;27;20210;-85
2020/12/29 08:24:01;;;;;;;4.38;3.63;;;5.70;99.90;;;;;;5147438;27;20198;-85
2020/12/29 08:26:27;;;;;;;3.78;3.38;;;5.70;99.90;;;;;;5147203;27;20203;-85
2020/12/29 08:28:55;;;;;;;4.70;4.30;;;5.70;99.90;;;;;;5155552;27;20262;-86
2020/12/29 08:31:22;;;;;;;4.60;3.42;;;5.70;99.90;;;;;;5150431;27;20564;-86
2020/12/29 08:33:51;;;;;;;4.40;3.97;;;5.70;99.90;;;;;;5149257;27;20201;-85
2020/12/29 08:36:24;;;;;;;3.78;2.97;;;5.70;99.90;;;;;;5137432;27;20196;-86
2020/12/29 08:39:19;;;;;;;4.68;3.45;;;5.60;99.90;;;;;;5136667;27;20564;-85
2020/12/29 08:41:53;;;;;;;3.25;2.95;;;5.70;99.90;;;;;;5136366;27;20194;-85
2020/12/29 08:44:20;;;;;;;5.43;3.95;;;5.70;99.90;;;;;;5140068;27;20249;-86
2020/12/29 08:46:46;;;;;;;5.35;3.80;;;5.70;99.90;;;;;;5149156;27;20203;-85
2020/12/29 08:49:12;;;;;;;3.72;3.10;;;5.70;99.90;;;;;;5137069;27;20207;-85
2020/12/29 08:51:42;;;;;;;3.60;3.30;;;5.70;99.90;;;;;;5139562;27;20216;-86
2020/12/29 08:54:10;;;;;;;3.88;3.50;;;5.60;99.90;;;;;;5136505;27;20192;-85
2020/12/29 08:56:36;;;;;;;3.65;3.35;;;5.70;99.90;;;;;;5139933;27;20223;-86
2020/12/29 08:59:13;;;;;;;4.45;3.60;;;5.70;99.90;;;;;;5156443;27;20191;-84
2020/12/29 09:01:41;;;;;;;3.20;3.00;;;5.60;99.90;;;;;;5148992;27;20196;-84
2020/12/29 09:04:27;;;;;;;7.38;3.47;;;5.70;99.90;;;;;;5134854;27;20628;-84
2020/12/29 09:07:06;;;;;;;3.17;2.92;;;5.70;99.90;;;;;;5151524;27;20191;-85
2020/12/29 09:09:34;;;;;;;4.07;3.20;;;5.70;99.90;;;;;;5144350;27;20224;-84
2020/12/29 09:12:12;;;;;;;4.60;3.45;;;5.70;99.90;;;;;;5138088;27;20826;-82
2020/12/29 09:14:39;;;;;;;4.05;3.50;;;5.70;99.90;;;;;;5136091;27;20193;-82
2020/12/29 09:17:07;;;;;;;4.18;3.33;;;5.70;99.90;;;;;;5145076;27;20192;-83
2020/12/29 09:19:34;;;;;;;7.97;3.67;;;5.70;99.90;;;;;;5146331;27;20215;-82
2020/12/29 09:22:09;;;;;;;2.70;2.50;;;5.60;99.90;;;;;;5150332;27;20196;-82
2020/12/29 09:24:36;;;;;;;3.72;3.33;;;5.60;99.90;;;;;;5135572;27;20620;-81
2020/12/29 09:27:03;;;;;;;5.43;3.58;;;5.70;99.90;;;;;;5154497;27;20199;-81
2020/12/29 09:29:33;;;;;;;4.97;3.25;;;5.70;99.90;;;;;;5149058;27;20188;-82
2020/12/29 09:32:00;;;;;;;4.78;3.03;;;5.70;99.90;;;;;;5155275;27;20192;-80
2020/12/29 09:34:27;;;;;;;2.95;2.70;;;5.70;99.90;;;;;;5155144;27;20191;-83
2020/12/29 09:36:53;;;;;;;3.22;2.88;;;5.70;99.90;;;;;;5142383;27;20232;-82
2020/12/29 09:39:20;;;;;;;3.42;3.13;;;5.60;99.90;;;;;;5156017;27;20209;-84
2020/12/29 09:41:54;;;;;;;4.13;3.08;;;5.60;99.90;;;;;;5143627;27;20203;-81
2020/12/29 09:44:20;;;;;;;5.03;3.10;;;5.60;99.90;;;;;;5134160;27;20632;-83
2020/12/29 09:46:46;;;;;;;4.00;3.70;;;5.60;99.90;;;;;;5149925;27;20196;-83
2020/12/29 09:49:12;;;;;;;2.85;2.55;;;5.60;99.90;;;;;;5154870;27;20252;-83
2020/12/29 09:51:39;;;;;;;4.95;3.47;;;5.60;99.90;;;;;;5154788;27;20195;-76
2020/12/29 09:54:05;;;;;;;3.35;3.05;;;5.60;99.90;;;;;;5142152;27;20196;-81
2020/12/29 09:56:32;;;;;;;3.72;2.67;;;5.60;99.90;;;;;;5153884;27;20210;-80
2020/12/29 09:58:58;;;;;;;2.97;2.63;;;5.60;99.90;;;;;;5138831;27;20200;-80
2020/12/29 10:01:24;;;;;;;3.55;3.22;;;5.60;99.90;;;;;;5133588;27;20216;-81
2020/12/29 10:03:51;;;;;;;3.67;3.08;;;5.60;99.90;;;;;;5137210;27;20211;-83
2020/12/29 10:06:17;;;;;;;3.22;2.92;;;5.60;99.90;;;;;;5144665;27;20223;-84
2020/12/29 10:08:43;;;;;;;4.07;2.78;;;5.60;99.90;;;;;;5134527;27;20196;-84
2020/12/29 10:11:11;;;;;;;3.92;2.88;;;5.60;99.90;;;;;;5136593;27;20192;-84
2020/12/29 10:13:39;;;;;;;3.72;3.42;;;5.60;99.90;;;;;;5134173;27;20199;-84
2020/12/29 10:16:05;;;;;;;4.40;3.47;;;5.60;99.90;;;;;;5133872;27;20229;-84
2020/12/29 10:18:32;;;;;;;4.40;3.35;;;5.60;99.90;;;;;;5146813;27;20204;-85
2020/12/29 10:20:58;;;;;;;4.30;3.55;;;5.60;99.90;;;;;;5150736;27;20219;-85
2020/12/29 10:23:25;;;;;;;3.00;2.78;;;5.60;99.90;;;;;;5154617;27;20191;-85
2020/12/29 10:25:51;;;;;;;3.35;3.05;;;5.60;99.90;;;;;;5138493;27;20199;-84
2020/12/29 10:28:19;;;;;;;4.10;3.40;;;5.60;99.90;;;;;;5153943;27;20215;-84
2020/12/29 10:30:47;;;;;;;5.63;3.47;;;5.60;99.90;;;;;;5141331;27;20195;-85
2020/12/29 10:33:13;;;;;;;4.72;3.05;;;5.60;99.90;;;;;;5154070;27;20203;-84
2020/12/29 10:35:40;;;;;;;8.65;3.28;;;5.70;99.90;;;;;;5141557;27;20204;-84
2020/12/29 10:38:06;;;;;;;3.75;3.45;;;5.70;99.90;;;;;;5133584;27;20224;-84
2020/12/29 10:40:32;;;;;;;5.50;2.90;;;5.70;99.90;;;;;;5133837;27;20276;-85
2020/12/29 10:42:58;;;;;;;3.95;3.55;;;5.70;99.90;;;;;;5133931;27;20200;-85
2020/12/29 10:45:25;;;;;;;4.25;2.72;;;5.60;99.90;;;;;;5146311;27;20272;-84
2020/12/29 10:47:52;;;;;;;7.45;2.97;;;5.70;99.90;;;;;;5150414;27;20202;-84
2020/12/29 10:50:18;;;;;;;8.73;4.00;;;5.70;99.90;;;;;;5145057;27;20265;-84
2020/12/29 10:52:44;;;;;;;4.75;3.05;;;5.70;99.90;;;;;;5133618;28;20199;-84
2020/12/29 10:55:10;;;;;;;3.80;3.50;;;5.70;99.90;;;;;;5133429;28;20206;-85
2020/12/29 10:57:37;;;;;;;3.97;3.00;;;5.70;99.90;;;;;;5144188;27;20242;-84
2020/12/29 11:00:04;;;;;;;5.07;3.38;;;5.70;99.90;;;;;;5138332;27;20690;-84
2020/12/29 11:02:30;;;;;;;6.80;3.58;;;5.70;99.90;;;;;;5133340;27;20184;-85
2020/12/29 11:04:57;;;;;;;6.10;2.90;;;5.70;99.90;;;;;;5152915;27;20770;-85
2020/12/29 11:07:24;;;;;;;5.47;3.50;;;5.70;99.90;;;;;;5152854;27;20195;-84
2020/12/29 11:09:50;;;;;;;3.75;3.10;;;5.70;99.90;;;;;;5134938;27;20183;-84
2020/12/29 11:12:16;;;;;;;5.38;3.55;;;5.70;99.90;;;;;;5149556;27;20188;-84
2020/12/29 11:14:42;;;;;;;3.90;3.17;;;5.70;99.90;;;;;;5145776;27;20225;-84
2020/12/29 11:17:08;;;;;;;8.98;3.75;;;5.70;99.90;;;;;;5148283;27;20205;-85
2020/12/29 11:19:35;;;;;;;4.97;3.58;;;5.70;99.90;;;;;;5137850;27;20662;-85
2020/12/29 11:22:02;;;;;;;4.75;3.08;;;5.70;99.90;;;;;;5137190;27;20651;-84
2020/12/29 11:24:28;;;;;;;3.67;3.00;;;5.70;99.90;;;;;;5154683;27;20195;-85
2020/12/29 11:26:55;;;;;;;6.82;2.80;;;5.70;99.90;;;;;;5141834;27;20195;-84
2020/12/29 11:29:21;;;;;;;4.00;3.60;;;5.80;99.90;;;;;;5137594;27;20196;-80
2020/12/29 11:31:47;;;;;;;3.30;3.00;;;5.70;99.90;;;;;;5139686;27;20617;-83
2020/12/29 11:34:13;;;;;;;3.80;3.00;;;5.70;99.90;;;;;;5138257;27;20196;-84
2020/12/29 11:36:40;;;;;;;5.00;3.70;;;5.70;99.90;;;;;;5152768;27;20203;-84
2020/12/29 11:39:07;;;;;;;5.38;3.50;;;5.70;99.90;;;;;;5155663;27;20192;-79
2020/12/29 11:41:33;;;;;;;5.55;3.40;;;5.80;99.90;;;;;;5154665;27;20242;-77
2020/12/29 11:43:59;;;;;;;5.35;3.30;;;5.80;99.90;;;;;;5143732;27;20256;-80
2020/12/29 11:46:26;;;;;;;3.60;3.30;;;5.80;99.90;;;;;;5150416;27;20199;-78
2020/12/29 11:48:52;;;;;;;5.90;4.30;;;5.80;99.90;;;;;;5155729;27;20191;-78
2020/12/29 11:51:18;;;;;;;4.88;4.38;;;5.80;99.90;;;;;;5141874;27;20204;-78
2020/12/29 11:53:44;;;;;;;4.97;4.25;;;5.80;99.90;;;;;;5150138;27;20658;-78
2020/12/29 11:56:11;;;;;;;4.78;3.90;;;5.80;99.90;;;;;;5148200;27;20188;-77
2020/12/29 11:58:38;;;;;;;4.68;4.18;;;5.80;99.90;;;;;;5152314;27;20192;-80
2020/12/29 12:01:04;;;;;;;6.15;4.20;;;5.80;99.90;;;;;;5153947;27;20692;-77
2020/12/29 12:03:30;;;;;;;6.72;4.88;;;5.80;99.90;;;;;;5143803;27;20188;-77
2020/12/29 12:05:57;;;;;;;8.35;5.07;;;5.80;99.90;;;;;;5138282;27;20240;-77
2020/12/29 12:08:23;;;;;;;4.80;3.40;;;5.80;99.90;;;;;;5148201;27;20199;-77
2020/12/29 12:10:50;;;;;;;6.53;4.10;;;5.90;99.90;;;;;;5135610;27;20222;-77
2020/12/29 12:13:17;;;;;;;5.95;4.93;;;5.80;99.90;;;;;;5152537;27;20204;-80
2020/12/29 12:15:43;;;;;;;6.35;4.20;;;5.80;99.90;;;;;;5138597;27;20203;-79
2020/12/29 12:18:09;;;;;;;9.30;5.43;;;5.90;99.90;;;;;;5136478;27;20316;-80
2020/12/29 12:20:36;;;;;;;7.00;4.45;;;5.80;99.90;;;;;;5141996;27;20260;-80
2020/12/29 12:23:02;;;;;;;5.20;4.50;;;5.80;99.90;;;;;;5135432;27;20200;-81
2020/12/29 12:25:28;;;;;;;6.18;5.50;;;5.80;99.90;;;;;;5139210;27;20203;-81
2020/12/29 12:27:54;;;;;;;8.82;5.60;;;5.80;99.90;;;;;;5135194;27;20192;-78
2020/12/29 12:30:22;;;;;;;6.10;4.90;;;5.80;99.90;;;;;;5145412;27;20188;-79
2020/12/29 12:32:48;;;;;;;6.78;4.50;;;5.90;99.90;;;;;;5148320;27;20285;-83
2020/12/29 12:35:14;;;;;;;6.35;4.95;;;5.90;99.90;;;;;;5135033;27;20199;-77
2020/12/29 12:37:40;;;;;;;8.80;5.60;;;5.90;99.90;;;;;;5148288;27;20276;-79
2020/12/29 12:40:07;;;;;;;6.30;4.60;;;5.90;99.90;;;;;;5149615;27;20574;-80
2020/12/29 12:42:33;;;;;;;9.30;5.30;;;5.90;99.90;;;;;;5154965;27;20203;-77
2020/12/29 12:44:59;;;;;;;7.78;5.55;;;5.90;99.90;;;;;;5151477;27;20195;-80
2020/12/29 12:47:26;;;;;;;5.38;4.88;;;5.90;99.90;;;;;;5153494;27;20259;-78
2020/12/29 12:49:52;;;;;;;6.20;5.63;;;5.90;99.90;;;;;;5154300;27;20195;-78
2020/12/29 12:52:19;;;;;;;7.93;5.20;;;5.90;99.90;;;;;;5148835;27;20195;-79
2020/12/29 12:54:45;;;;;;;7.03;4.80;;;5.90;99.90;;;;;;5151369;27;20206;-80
2020/12/29 12:57:11;;;;;;;5.57;5.07;;;5.90;99.90;;;;;;5149134;27;20229;-77
2020/12/29 12:59:37;;;;;;;8.82;4.85;;;6.00;99.90;;;;;;5138452;27;20197;-78